createdAt,value
2023-02-24T00:01:52.595Z,63.66
2023-02-24T00:04:21.313Z,63.75
2023-02-24T00:06:49.273Z,64.01
2023-02-24T00:09:20.134Z,64.03
2023-02-24T00:11:59.500Z,64.15
2023-02-24T00:14:29.342Z,64.27
2023-02-24T00:16:58.649Z,64.20
2023-02-24T00:19:29.563Z,64.17
2023-02-24T00:21:58.713Z,64.38
2023-02-24T00:24:26.736Z,64.46
2023-02-24T00:26:59.945Z,64.43
2023-02-24T00:29:29.352Z,64.44
2023-02-24T00:32:02.808Z,64.49
2023-02-24T00:34:32.265Z,64.67
2023-02-24T00:36:59.986Z,64.88
2023-02-24T00:39:30.804Z,65.00
2023-02-24T00:42:04.695Z,65.04
2023-02-24T00:44:45.709Z,65.30
2023-02-24T00:47:16.640Z,65.55
2023-02-24T00:49:45.111Z,65.40
2023-02-24T00:52:15.560Z,65.59
2023-02-24T00:54:46.232Z,65.88
2023-02-24T00:57:14.894Z,65.93
2023-02-24T00:59:47.535Z,65.99
2023-02-24T01:02:15.980Z,65.90
2023-02-24T01:04:45.537Z,65.90
2023-02-24T01:07:14.738Z,65.96
2023-02-24T01:09:44.258Z,66.16
2023-02-24T01:12:22.114Z,66.02
2023-02-24T01:14:52.111Z,66.14
2023-02-24T01:17:21.158Z,66.41
2023-02-24T01:19:50.164Z,66.55
2023-02-24T01:22:20.685Z,66.46
2023-02-24T01:24:48.855Z,66.49
2023-02-24T01:27:19.426Z,66.48
2023-02-24T01:29:48.067Z,66.51
2023-02-24T01:32:19.563Z,66.58
2023-02-24T01:34:50.963Z,66.69
2023-02-24T01:37:19.525Z,66.62
2023-02-24T01:39:48.083Z,66.82
2023-02-24T01:42:19.879Z,66.94
2023-02-24T01:44:48.025Z,66.89
2023-02-24T01:47:20.473Z,66.83
2023-02-24T01:49:50.375Z,67.04
2023-02-24T01:52:24.270Z,67.15
2023-02-24T01:54:55.591Z,67.12
2023-02-24T01:57:24.719Z,67.11
2023-02-24T01:59:54.084Z,67.28
2023-02-24T02:02:23.320Z,67.32
2023-02-24T02:04:58.877Z,67.33
2023-02-24T02:07:28.827Z,67.52
2023-02-24T02:10:00.376Z,67.48
2023-02-24T02:12:29.012Z,67.45
2023-02-24T02:14:58.240Z,67.61
2023-02-24T02:17:35.774Z,67.97
2023-02-24T02:20:22.888Z,67.84
2023-02-24T02:22:59.396Z,67.92
2023-02-24T02:25:44.733Z,67.84
2023-02-24T02:28:22.053Z,67.95
2023-02-24T02:31:04.819Z,67.78
2023-02-24T02:33:47.978Z,67.91
2023-02-24T02:36:22.888Z,68.04
2023-02-24T02:39:26.027Z,68.13
2023-02-24T02:42:06.134Z,67.67
2023-02-24T02:45:13.314Z,67.85
2023-02-24T02:48:02.836Z,68.24
2023-02-24T02:50:33.493Z,68.19
2023-02-24T02:53:04.471Z,68.39
2023-02-24T02:55:38.931Z,68.50
2023-02-24T02:58:10.670Z,68.50
2023-02-24T03:00:50.031Z,68.59
2023-02-24T03:03:19.567Z,68.64
2023-02-24T03:06:01.526Z,68.59
2023-02-24T03:08:31.133Z,68.51
2023-02-24T03:11:01.245Z,68.50
2023-02-24T03:13:31.977Z,68.64
2023-02-24T03:16:01.977Z,68.60
2023-02-24T03:18:37.377Z,68.61
2023-02-24T03:21:08.004Z,68.84
2023-02-24T03:23:38.323Z,68.73
2023-02-24T03:26:16.819Z,68.71
2023-02-24T03:28:51.057Z,68.85
2023-02-24T03:31:31.089Z,68.89
2023-02-24T03:34:14.938Z,68.85
2023-02-24T03:36:43.457Z,68.92
2023-02-24T03:39:12.448Z,69.08
2023-02-24T03:41:56.726Z,69.32
2023-02-24T03:44:25.576Z,69.40
2023-02-24T03:46:55.737Z,69.37
2023-02-24T03:49:25.213Z,69.49
2023-02-24T03:52:24.161Z,69.73
2023-02-24T03:55:06.904Z,70.12
2023-02-24T03:58:14.190Z,70.16
2023-02-24T04:00:55.940Z,70.35
2023-02-24T04:04:07.624Z,70.51
2023-02-24T04:07:00.806Z,70.88
2023-02-24T04:09:43.746Z,71.54
2023-02-24T04:12:20.297Z,72.37
2023-02-24T04:15:22.647Z,72.64
2023-02-24T04:18:01.407Z,73.22
2023-02-24T04:20:34.635Z,73.39
2023-02-24T04:23:08.813Z,73.40
2023-02-24T04:25:38.442Z,73.77
2023-02-24T04:28:10.486Z,74.29
2023-02-24T04:30:45.738Z,74.31
2023-02-24T04:33:14.350Z,75.51
2023-02-24T04:35:45.565Z,75.85
2023-02-24T04:38:14.233Z,76.17
2023-02-24T04:40:42.549Z,76.66
2023-02-24T04:43:10.952Z,76.66
2023-02-24T04:45:41.843Z,76.61
2023-02-24T04:48:12.604Z,76.74
2023-02-24T04:50:43.072Z,76.67
2023-02-24T04:53:13.784Z,76.68
2023-02-24T04:55:44.179Z,76.86
2023-02-24T04:58:13.977Z,76.88
2023-02-24T05:00:42.292Z,76.45
2023-02-24T05:03:12.082Z,76.36
2023-02-24T05:05:42.901Z,76.29
2023-02-24T05:08:10.922Z,76.12
2023-02-24T05:10:41.463Z,75.76
2023-02-24T05:13:15.888Z,75.22
2023-02-24T05:15:44.832Z,75.07
2023-02-24T05:18:14.859Z,75.14
2023-02-24T05:21:08.002Z,75.40
2023-02-24T05:23:41.219Z,75.29
2023-02-24T05:26:09.727Z,75.52
2023-02-24T05:28:41.068Z,75.50
2023-02-24T05:31:15.048Z,75.57
2023-02-24T05:33:45.233Z,75.77
2023-02-24T05:36:17.319Z,75.79
2023-02-24T05:38:46.337Z,75.78
2023-02-24T05:41:22.753Z,75.58
2023-02-24T05:43:55.948Z,75.48
2023-02-24T05:46:29.257Z,74.93
2023-02-24T05:49:02.370Z,74.73
2023-02-24T05:51:38.869Z,74.67
2023-02-24T05:54:08.738Z,74.63
2023-02-24T05:56:38.721Z,74.16
2023-02-24T05:59:11.227Z,73.73
2023-02-24T06:01:41.662Z,73.43
2023-02-24T06:04:09.950Z,73.47
2023-02-24T06:06:38.434Z,73.24
2023-02-24T06:09:10.785Z,73.15
2023-02-24T06:11:42.595Z,73.00
2023-02-24T06:14:11.333Z,73.23
2023-02-24T06:16:41.228Z,73.26
2023-02-24T06:19:11.006Z,73.21
2023-02-24T06:21:41.474Z,72.88
2023-02-24T06:24:14.584Z,72.79
2023-02-24T06:26:46.478Z,72.85
2023-02-24T06:29:16.516Z,72.22
2023-02-24T06:31:44.914Z,72.23
2023-02-24T06:34:14.037Z,72.02
2023-02-24T06:36:43.587Z,72.27
2023-02-24T06:39:14.447Z,72.48
2023-02-24T06:41:42.653Z,72.19
2023-02-24T06:44:10.742Z,71.98
2023-02-24T06:46:38.418Z,71.62
2023-02-24T06:49:06.179Z,71.63
2023-02-24T06:51:34.100Z,71.65
2023-02-24T06:54:02.796Z,71.60
2023-02-24T06:56:32.416Z,71.40
2023-02-24T06:59:01.177Z,71.46
2023-02-24T07:01:29.238Z,71.34
2023-02-24T07:04:07.361Z,71.46
2023-02-24T07:06:38.218Z,71.32
2023-02-24T07:09:08.611Z,70.72
2023-02-24T07:11:37.599Z,71.07
2023-02-24T07:14:07.940Z,70.82
2023-02-24T07:16:36.526Z,70.91
2023-02-24T07:19:11.235Z,70.71
2023-02-24T07:21:40.767Z,70.65
2023-02-24T07:24:13.498Z,70.65
2023-02-24T07:26:42.208Z,70.35
2023-02-24T07:29:11.472Z,70.35
2023-02-24T07:31:39.983Z,70.76
2023-02-24T07:34:07.912Z,70.44
2023-02-24T07:36:49.226Z,69.87
2023-02-24T07:39:19.227Z,69.95
2023-02-24T07:41:49.491Z,69.86
2023-02-24T07:44:19.317Z,70.27
2023-02-24T07:46:49.057Z,70.65
2023-02-24T07:49:20.327Z,70.55
2023-02-24T07:51:53.016Z,70.57
2023-02-24T07:54:23.277Z,70.62
2023-02-24T07:56:58.933Z,71.07
2023-02-24T07:59:29.610Z,71.33
2023-02-24T08:01:57.584Z,71.76
2023-02-24T08:04:28.815Z,71.85
2023-02-24T08:06:58.570Z,71.99
2023-02-24T08:09:45.483Z,71.85
2023-02-24T08:12:18.320Z,72.11
2023-02-24T08:14:51.009Z,72.32
2023-02-24T08:17:21.974Z,72.50
2023-02-24T08:20:00.984Z,72.42
2023-02-24T08:22:36.061Z,72.49
2023-02-24T08:25:07.817Z,72.54
2023-02-24T08:27:43.288Z,72.80
2023-02-24T08:30:23.479Z,72.88
2023-02-24T08:32:59.879Z,72.77
2023-02-24T08:35:35.739Z,72.86
2023-02-24T08:38:14.337Z,72.87
2023-02-24T08:40:53.212Z,72.79
2023-02-24T08:43:30.903Z,73.04
2023-02-24T08:46:18.279Z,73.06
2023-02-24T08:48:55.412Z,72.94
2023-02-24T08:51:34.941Z,72.95
2023-02-24T08:54:15.439Z,72.22
2023-02-24T08:56:55.914Z,72.66
2023-02-24T08:59:37.602Z,72.52
2023-02-24T14:02:44.171Z,57.01
2023-02-24T14:05:29.709Z,57.50
2023-02-24T14:07:57.801Z,56.82
2023-02-24T14:10:31.261Z,56.47
2023-02-24T14:13:08.603Z,56.25
2023-02-24T14:15:36.714Z,56.46
2023-02-24T14:18:05.730Z,55.63
2023-02-24T14:20:37.566Z,56.21
2023-02-24T14:23:20.429Z,55.83
2023-02-24T14:25:53.869Z,55.79
2023-02-24T14:28:23.945Z,56.31
2023-02-24T14:31:00.303Z,56.43
2023-02-24T14:33:36.509Z,56.58
2023-02-24T14:36:06.376Z,57.28
2023-02-24T14:38:37.408Z,57.31
2023-02-24T14:41:30.178Z,57.44
2023-02-24T14:43:58.060Z,57.67
2023-02-24T14:46:26.658Z,57.78
2023-02-24T14:48:56.096Z,58.13
2023-02-24T14:51:37.400Z,58.51
2023-02-24T14:54:08.085Z,58.49
2023-02-24T14:56:36.820Z,58.42
2023-02-24T14:59:05.882Z,58.25
2023-02-24T15:01:37.462Z,58.39
2023-02-24T15:04:36.916Z,58.51
2023-02-24T15:07:07.401Z,58.24
2023-02-24T15:09:42.499Z,58.24
2023-02-24T15:12:24.269Z,58.15
2023-02-24T15:14:59.508Z,58.44
2023-02-24T15:17:27.976Z,58.63
2023-02-24T15:19:55.940Z,59.10
2023-02-24T15:22:29.625Z,59.03
2023-02-24T15:25:19.091Z,59.01
2023-02-24T15:28:02.242Z,59.15
2023-02-24T15:30:30.317Z,59.28
2023-02-24T15:33:22.320Z,59.36
2023-02-24T15:36:00.306Z,59.14
2023-02-24T15:38:37.370Z,59.47
2023-02-24T15:41:07.158Z,59.39
2023-02-24T15:43:50.366Z,59.36
2023-02-24T15:46:18.287Z,59.03
2023-02-24T15:48:47.847Z,58.86
2023-02-24T15:51:47.207Z,59.00
2023-02-24T15:54:30.891Z,59.42
2023-02-24T15:56:59.616Z,59.41
2023-02-24T15:59:28.428Z,59.66
2023-02-24T16:01:56.121Z,59.87
2023-02-24T16:04:24.406Z,60.14
2023-02-24T16:06:57.323Z,60.03
2023-02-24T16:09:33.367Z,59.87
2023-02-24T16:12:06.040Z,59.97
2023-02-24T16:14:33.870Z,59.94
2023-02-24T16:17:06.061Z,60.27
2023-02-24T16:19:33.770Z,60.53
2023-02-24T16:22:02.211Z,60.59
2023-02-24T16:24:30.108Z,60.87
2023-02-24T16:26:58.004Z,60.91
2023-02-24T16:29:26.357Z,60.81
2023-02-24T16:31:54.932Z,60.74
2023-02-24T16:34:23.210Z,60.77
2023-02-24T16:36:51.373Z,60.65
2023-02-24T16:39:19.400Z,60.27
2023-02-24T16:41:47.370Z,59.88
2023-02-24T16:44:15.231Z,60.08
2023-02-24T16:46:43.978Z,60.04
2023-02-24T16:49:17.840Z,59.99
2023-02-24T16:51:45.867Z,60.44
2023-02-24T16:54:13.529Z,60.72
2023-02-24T16:56:41.303Z,60.49
2023-02-24T16:59:08.949Z,60.79
2023-02-24T17:01:37.323Z,60.89
2023-02-24T17:04:08.199Z,60.68
2023-02-24T17:06:36.297Z,60.79
2023-02-24T17:09:04.388Z,60.68
2023-02-24T17:11:32.917Z,60.74
2023-02-24T17:14:00.648Z,60.55
2023-02-24T17:16:28.882Z,60.46
2023-02-24T17:18:57.005Z,60.43
2023-02-24T17:21:24.941Z,60.45
2023-02-24T17:23:52.594Z,60.67
2023-02-24T17:26:20.740Z,60.31
2023-02-24T17:28:48.653Z,60.24
2023-02-24T17:31:16.721Z,60.40
2023-02-24T17:33:44.513Z,60.44
2023-02-24T17:36:12.209Z,60.35
2023-02-24T17:38:40.026Z,60.32
2023-02-24T17:41:08.174Z,60.41
2023-02-24T17:43:36.072Z,60.59
2023-02-24T17:46:06.860Z,60.48
2023-02-24T17:48:35.310Z,60.24
2023-02-24T17:51:03.170Z,59.92
2023-02-24T17:53:31.823Z,59.97
2023-02-24T17:56:04.647Z,60.05
2023-02-24T17:58:32.697Z,60.03
2023-02-24T18:01:02.257Z,60.18
2023-02-24T18:03:31.086Z,60.07
2023-02-24T18:06:04.002Z,60.19
2023-02-24T18:08:36.054Z,60.62
2023-02-24T18:11:04.512Z,60.74
2023-02-24T18:13:33.269Z,61.02
2023-02-24T18:16:01.751Z,61.26
2023-02-24T18:18:30.354Z,61.30
2023-02-24T18:21:02.449Z,61.59
2023-02-24T18:23:30.193Z,61.72
2023-02-24T18:26:01.970Z,62.15
2023-02-24T18:28:30.617Z,62.42
2023-02-24T18:30:58.676Z,62.61
2023-02-24T18:33:27.083Z,62.72
2023-02-24T18:36:04.094Z,62.88
2023-02-24T18:38:32.791Z,62.80
2023-02-24T18:41:03.274Z,62.81
2023-02-24T18:43:31.764Z,62.99
2023-02-24T18:46:02.363Z,63.02
2023-02-24T18:48:31.068Z,63.19
2023-02-24T18:50:59.762Z,63.27
2023-02-24T18:53:30.988Z,63.35
2023-02-24T18:56:04.455Z,63.38
2023-02-24T18:58:33.707Z,63.47
2023-02-24T19:01:01.405Z,63.54
2023-02-24T19:03:29.243Z,63.37
2023-02-24T19:05:57.017Z,63.43
2023-02-24T19:08:24.994Z,63.72
2023-02-24T19:10:52.647Z,63.76
2023-02-24T19:13:20.566Z,63.84
2023-02-24T19:15:48.442Z,63.96
2023-02-24T19:18:17.132Z,64.06
2023-02-24T19:20:45.049Z,64.00
2023-02-24T19:23:13.182Z,63.95
2023-02-24T19:25:41.034Z,64.02
2023-02-24T19:28:08.745Z,63.90
2023-02-24T19:30:39.180Z,63.77
2023-02-24T19:33:07.370Z,63.79
2023-02-24T19:35:38.930Z,63.92
2023-02-24T19:38:07.045Z,63.89
2023-02-24T19:40:35.918Z,63.80
2023-02-24T19:43:03.661Z,64.05
2023-02-24T19:45:31.333Z,64.00
2023-02-24T19:47:59.056Z,63.97
2023-02-24T19:50:26.874Z,63.81
2023-02-24T19:52:54.649Z,63.93
2023-02-24T19:55:22.652Z,63.99
2023-02-24T19:57:54.627Z,64.17
2023-02-24T20:00:23.584Z,64.21
2023-02-24T20:02:53.275Z,64.32
2023-02-24T20:05:21.115Z,64.22
2023-02-24T20:07:48.838Z,64.44
2023-02-24T20:10:17.810Z,64.45
2023-02-24T20:12:45.595Z,64.47
2023-02-24T20:15:13.417Z,64.49
2023-02-24T20:17:41.128Z,64.43
2023-02-24T20:20:09.570Z,64.54
2023-02-24T20:22:37.216Z,64.50
2023-02-24T20:25:05.467Z,64.16
2023-02-24T20:27:33.390Z,64.15
2023-02-24T20:30:02.012Z,64.18
2023-02-24T20:32:29.883Z,64.34
2023-02-24T20:34:58.559Z,64.48
2023-02-24T20:37:26.265Z,64.46
2023-02-24T20:39:53.926Z,64.45
2023-02-24T20:42:21.640Z,64.52
2023-02-24T20:44:49.424Z,64.43
2023-02-24T20:51:55.010Z,64.49
2023-02-24T20:54:27.332Z,64.63
2023-02-24T20:56:57.010Z,64.70
2023-02-24T20:59:25.351Z,64.81
2023-02-24T21:01:53.396Z,64.76
2023-02-24T21:04:21.536Z,64.78
2023-02-24T21:06:51.472Z,64.81
2023-02-24T21:09:19.325Z,64.76
2023-02-24T21:11:47.447Z,64.79
2023-02-24T21:14:16.713Z,64.68
2023-02-24T21:16:46.325Z,64.86
2023-02-24T21:19:14.232Z,64.71
2023-02-24T21:21:41.904Z,65.10
2023-02-24T21:24:09.691Z,64.95
2023-02-24T21:26:37.612Z,65.17
2023-02-24T21:29:05.313Z,65.09
2023-02-24T21:31:33.161Z,65.08
2023-02-24T21:34:01.016Z,64.92
2023-02-24T21:36:29.277Z,64.77
2023-02-24T21:38:57.244Z,64.52
2023-02-24T21:41:25.036Z,64.36
2023-02-24T21:43:55.122Z,64.13
2023-02-24T21:46:24.936Z,64.05
2023-02-24T21:48:57.679Z,63.90
2023-02-24T21:51:26.925Z,63.96
2023-02-24T21:53:55.526Z,63.47
2023-02-24T21:56:26.280Z,63.66
2023-02-24T21:58:58.210Z,63.65
2023-02-24T22:01:28.612Z,64.03
2023-02-24T22:03:59.174Z,64.35
2023-02-24T22:06:31.352Z,64.59
2023-02-24T22:09:01.096Z,64.67
2023-02-24T22:11:30.998Z,64.76
2023-02-24T22:13:59.410Z,64.66
2023-02-24T22:16:27.777Z,65.03
2023-02-24T22:18:55.881Z,65.32
2023-02-24T22:21:25.865Z,65.39
2023-02-24T22:23:55.966Z,65.48
2023-02-24T22:26:25.361Z,65.56
2023-02-24T22:28:54.327Z,65.62
2023-02-24T22:31:24.950Z,65.44
2023-02-24T22:33:53.004Z,65.35
2023-02-24T22:36:25.134Z,65.78
2023-02-24T22:38:53.149Z,65.98
2023-02-24T22:41:23.513Z,66.34
2023-02-24T22:43:51.565Z,66.57
2023-02-24T22:46:28.115Z,66.65
2023-02-24T22:48:56.760Z,66.89
2023-02-24T22:51:25.512Z,66.99
2023-02-24T22:53:53.981Z,67.15
2023-02-24T22:56:25.656Z,67.55
2023-02-24T22:58:55.722Z,67.96
2023-02-24T23:01:34.913Z,68.43
2023-02-24T23:04:05.359Z,68.97
2023-02-24T23:06:34.530Z,69.17
2023-02-24T23:09:04.151Z,69.44
2023-02-24T23:11:34.946Z,69.69
2023-02-24T23:14:05.904Z,69.48
2023-02-24T23:16:35.237Z,69.67
2023-02-24T23:19:07.358Z,69.77
2023-02-24T23:21:38.568Z,69.82
2023-02-24T23:24:07.865Z,70.00
2023-02-24T23:26:44.790Z,69.83
2023-02-24T23:29:13.822Z,69.88
2023-02-24T23:31:42.180Z,70.26
2023-02-24T23:34:10.521Z,70.76
2023-02-24T23:36:40.328Z,71.09
2023-02-24T23:39:09.065Z,71.34
2023-02-24T23:41:37.224Z,71.36
2023-02-24T23:44:05.612Z,71.72
2023-02-24T23:46:34.990Z,71.45
2023-02-24T23:49:03.026Z,71.42
2023-02-24T23:51:45.824Z,71.49
2023-02-24T23:54:17.211Z,71.53
2023-02-24T23:56:45.279Z,71.68
2023-02-24T23:59:12.943Z,71.86
